Time;durP1;ratioP1;P1;durP2;ratioP2;P2;SDS_P1;SDS_P2;PMS_P1;PMS_P2;Temp;Humidity;BMP_temperature;BMP_pressure;BME280_temperature;BME280_humidity;BME280_pressure;Samples;Min_cycle;Max_cycle;Signal;HPM_P1;HPM_P2
2022/08/29 00:01:24;;;;;;;3.80;2.23;;;17.20;99.90;;;;;;5095432;28;20185;-71
2022/08/29 00:03:54;;;;;;;3.20;2.00;;;17.20;99.90;;;;;;5098272;28;20190;-71
2022/08/29 00:06:20;;;;;;;5.43;2.73;;;17.10;99.90;;;;;;5099484;28;20167;-74
2022/08/29 00:08:46;;;;;;;3.00;1.77;;;17.10;99.90;;;;;;5099719;28;20198;-71
2022/08/29 00:11:12;;;;;;;6.07;2.00;;;17.00;99.90;;;;;;5099563;28;20477;-75
2022/08/29 00:13:38;;;;;;;1.90;1.80;;;16.90;99.90;;;;;;5099622;28;20246;-76
2022/08/29 00:16:04;;;;;;;2.63;2.43;;;16.80;99.90;;;;;;5099623;28;20588;-71
2022/08/29 00:18:32;;;;;;;2.40;1.60;;;16.80;99.90;;;;;;5098477;28;20177;-71
2022/08/29 00:20:58;;;;;;;2.80;1.70;;;16.70;99.90;;;;;;5099152;28;20225;-74
2022/08/29 00:23:24;;;;;;;2.30;2.07;;;16.70;99.90;;;;;;5098234;28;20530;-72
2022/08/29 00:25:49;;;;;;;3.93;2.00;;;16.60;99.90;;;;;;5098461;28;20193;-71
2022/08/29 00:28:15;;;;;;;5.33;2.03;;;16.70;99.90;;;;;;5098986;28;20298;-72
2022/08/29 00:30:41;;;;;;;1.63;1.43;;;16.60;99.90;;;;;;5099351;28;20167;-71
2022/08/29 00:33:07;;;;;;;3.70;2.60;;;16.60;99.90;;;;;;5099045;28;20166;-71
2022/08/29 00:35:37;;;;;;;5.17;2.10;;;16.60;99.90;;;;;;5099028;28;20159;-71
2022/08/29 00:38:06;;;;;;;6.17;2.50;;;16.50;99.90;;;;;;5098056;28;20566;-72
2022/08/29 00:40:39;;;;;;;5.03;2.00;;;16.40;99.90;;;;;;5098155;28;20243;-72
2022/08/29 00:43:06;;;;;;;4.17;2.30;;;16.30;99.90;;;;;;5098895;28;20171;-74
2022/08/29 00:45:34;;;;;;;3.50;2.43;;;16.20;99.90;;;;;;5099084;28;20163;-72
2022/08/29 00:48:10;;;;;;;1.97;1.87;;;16.30;99.90;;;;;;5098807;28;20178;-72
2022/08/29 00:51:00;;;;;;;3.77;1.87;;;16.30;99.90;;;;;;5098619;28;20186;-72
2022/08/29 00:53:33;;;;;;;2.07;1.83;;;16.30;99.90;;;;;;5098760;28;20167;-72
2022/08/29 00:56:00;;;;;;;3.03;2.03;;;16.20;99.90;;;;;;5098898;28;20166;-71
2022/08/29 00:58:50;;;;;;;4.53;2.27;;;16.20;99.90;;;;;;5098319;28;20171;-72
2022/08/29 01:01:16;;;;;;;2.63;1.60;;;16.00;99.90;;;;;;5097508;28;20265;-73
2022/08/29 01:03:42;;;;;;;5.77;1.90;;;15.90;99.90;;;;;;5098579;28;20294;-73
2022/08/29 01:06:09;;;;;;;3.57;1.80;;;15.80;99.90;;;;;;5098334;28;20296;-71
2022/08/29 01:08:34;;;;;;;2.00;1.73;;;15.80;99.90;;;;;;5098405;28;20244;-72
2022/08/29 01:13:48;;;;;;;3.17;2.53;;;14.30;99.90;;;;;;5098405;28;20181;-71
2022/08/29 01:16:17;;;;;;;3.43;2.23;;;16.50;99.90;;;;;;5098382;28;20251;-74
2022/08/29 01:18:46;;;;;;;2.77;1.93;;;16.50;99.90;;;;;;5098440;28;20245;-72
2022/08/29 01:21:38;;;;;;;2.53;2.27;;;16.50;99.90;;;;;;5098411;28;20167;-72
2022/08/29 01:24:33;;;;;;;2.40;1.77;;;16.40;99.90;;;;;;5097174;28;20257;-72
2022/08/29 01:26:59;;;;;;;3.90;2.20;;;16.40;99.90;;;;;;5096090;28;20189;-72
2022/08/29 01:29:25;;;;;;;4.20;2.13;;;16.30;99.90;;;;;;5097811;28;20692;-73
2022/08/29 01:31:51;;;;;;;7.17;2.43;;;16.40;99.90;;;;;;5097241;28;20254;-74
2022/08/29 01:34:19;;;;;;;3.13;1.80;;;16.30;99.90;;;;;;5097520;28;20265;-71
2022/08/29 01:36:54;;;;;;;2.97;2.20;;;16.30;99.90;;;;;;5098017;28;20537;-72
2022/08/29 01:39:23;;;;;;;2.83;1.77;;;16.30;99.90;;;;;;5097915;28;20174;-72
2022/08/29 01:41:50;;;;;;;6.07;3.30;;;16.30;99.90;;;;;;5097891;28;20579;-72
2022/08/29 01:44:18;;;;;;;3.50;2.13;;;16.20;99.90;;;;;;5097711;28;20171;-72
2022/08/29 01:46:47;;;;;;;5.73;2.53;;;16.20;99.90;;;;;;5097838;28;20170;-70
2022/08/29 01:49:14;;;;;;;7.93;2.17;;;16.20;99.90;;;;;;5097277;28;20270;-73
2022/08/29 01:51:40;;;;;;;2.80;2.07;;;16.10;99.90;;;;;;5097701;28;20167;-71
2022/08/29 01:54:09;;;;;;;4.10;2.50;;;16.10;99.90;;;;;;5097569;28;20219;-71
2022/08/29 01:56:39;;;;;;;2.80;1.60;;;16.10;99.90;;;;;;5097754;28;20187;-71
2022/08/29 01:59:09;;;;;;;5.23;2.63;;;16.00;99.90;;;;;;5097386;28;20598;-72
2022/08/29 02:01:40;;;;;;;6.70;2.73;;;16.00;99.90;;;;;;5097417;28;20182;-71
2022/08/29 02:04:07;;;;;;;7.00;2.43;;;16.00;99.90;;;;;;5096740;28;20174;-71
2022/08/29 02:06:33;;;;;;;3.10;2.20;;;15.90;99.90;;;;;;5096079;28;20566;-73
2022/08/29 02:08:59;;;;;;;2.50;2.07;;;15.80;99.90;;;;;;5097098;28;20569;-70
2022/08/29 02:11:26;;;;;;;2.87;1.57;;;15.70;99.90;;;;;;5097261;28;20170;-71
2022/08/29 02:13:54;;;;;;;2.90;2.13;;;15.60;99.90;;;;;;5097241;28;20259;-71
2022/08/29 02:16:22;;;;;;;7.10;2.13;;;15.40;99.90;;;;;;5097242;28;20475;-71
2022/08/29 02:18:47;;;;;;;3.97;2.33;;;15.20;99.90;;;;;;5096832;28;20166;-73
2022/08/29 02:21:16;;;;;;;4.00;2.40;;;15.00;99.90;;;;;;5096932;28;20255;-71
2022/08/29 02:23:43;;;;;;;3.60;2.47;;;14.70;99.90;;;;;;5097202;28;20174;-72
2022/08/29 02:26:09;;;;;;;7.73;2.50;;;14.20;99.90;;;;;;5096369;28;20250;-71
2022/08/29 02:28:36;;;;;;;12.43;2.60;;;13.40;99.90;;;;;;5096746;28;20215;-71
2022/08/29 02:31:03;;;;;;;2.70;1.80;;;12.80;99.90;;;;;;5096899;28;20258;-70
2022/08/29 02:33:30;;;;;;;3.47;2.47;;;15.70;99.90;;;;;;5096569;28;20158;-71
2022/08/29 02:35:56;;;;;;;6.93;3.03;;;15.70;99.90;;;;;;5095831;28;20166;-72
2022/08/29 02:38:22;;;;;;;3.97;2.40;;;15.60;99.90;;;;;;5096826;28;20166;-70
2022/08/29 02:40:49;;;;;;;4.67;2.33;;;15.50;99.90;;;;;;5096784;28;20216;-72
2022/08/29 02:43:18;;;;;;;3.60;2.57;;;15.60;99.90;;;;;;5096680;28;20249;-74
2022/08/29 02:45:45;;;;;;;3.80;2.57;;;15.50;99.90;;;;;;5096710;28;20601;-72
2022/08/29 02:48:12;;;;;;;7.80;2.30;;;15.50;99.90;;;;;;5096623;28;20190;-71
2022/08/29 02:50:44;;;;;;;3.83;2.60;;;15.50;99.90;;;;;;5096324;28;20586;-71
2022/08/29 02:53:12;;;;;;;3.10;2.80;;;15.40;99.90;;;;;;5096650;28;20150;-71
2022/08/29 02:55:37;;;;;;;2.63;2.33;;;15.40;99.90;;;;;;5096429;28;20159;-71
2022/08/29 02:58:04;;;;;;;2.77;2.57;;;15.40;99.90;;;;;;5096442;28;20163;-71
2022/08/29 03:00:31;;;;;;;4.33;2.60;;;15.40;99.90;;;;;;5095043;28;20231;-71
2022/08/29 03:02:58;;;;;;;5.17;2.70;;;15.30;99.90;;;;;;5094622;28;20174;-72
2022/08/29 03:05:27;;;;;;;3.73;2.40;;;15.30;99.90;;;;;;5095601;28;20167;-72
2022/08/29 03:07:54;;;;;;;3.67;2.97;;;15.30;99.90;;;;;;5094480;28;20575;-71
2022/08/29 03:10:20;;;;;;;3.17;2.63;;;15.30;99.90;;;;;;5095388;28;20159;-71
2022/08/29 03:12:46;;;;;;;4.00;2.87;;;15.30;99.90;;;;;;5095309;28;20177;-72
2022/08/29 03:15:13;;;;;;;6.83;3.93;;;15.30;99.90;;;;;;5095120;28;20617;-71
2022/08/29 03:17:38;;;;;;;3.37;2.43;;;15.20;99.90;;;;;;5094281;28;20167;-71
2022/08/29 03:20:07;;;;;;;2.53;2.00;;;15.20;99.90;;;;;;5095407;28;20228;-72
2022/08/29 03:22:33;;;;;;;9.50;3.20;;;15.20;99.90;;;;;;5095258;28;20596;-73
2022/08/29 03:25:03;;;;;;;7.17;2.47;;;15.10;99.90;;;;;;5095419;28;20222;-72
2022/08/29 03:27:31;;;;;;;6.53;3.40;;;15.00;99.90;;;;;;5095052;28;20201;-72
2022/08/29 03:29:57;;;;;;;3.43;3.07;;;15.10;99.90;;;;;;5094977;28;20206;-72
2022/08/29 03:32:24;;;;;;;5.93;3.73;;;14.90;99.90;;;;;;5095121;28;20662;-72
2022/08/29 03:34:50;;;;;;;6.77;4.13;;;14.90;99.90;;;;;;5095275;28;20175;-73
2022/08/29 03:37:15;;;;;;;5.53;3.30;;;14.30;99.90;;;;;;5094096;28;20167;-71
2022/08/29 03:39:41;;;;;;;3.27;2.97;;;14.00;99.90;;;;;;5094916;28;20256;-72
2022/08/29 03:42:07;;;;;;;5.67;2.93;;;14.10;99.90;;;;;;5094947;28;20178;-72
2022/08/29 03:44:38;;;;;;;5.90;2.97;;;14.10;99.90;;;;;;5094804;28;20170;-75
2022/08/29 03:47:05;;;;;;;7.20;3.30;;;13.80;99.90;;;;;;5095028;28;20244;-72
2022/08/29 03:49:31;;;;;;;3.43;2.37;;;13.80;99.90;;;;;;5094788;28;20209;-72
2022/08/29 03:51:57;;;;;;;4.17;2.93;;;13.70;99.90;;;;;;5094854;28;20588;-72
2022/08/29 03:54:23;;;;;;;8.43;3.37;;;13.80;99.90;;;;;;5094882;28;20237;-72
2022/08/29 03:56:49;;;;;;;7.73;3.03;;;13.70;99.90;;;;;;5093772;28;20202;-72
2022/08/29 03:59:16;;;;;;;4.53;2.63;;;13.70;99.90;;;;;;5052120;28;1217066;-73
2022/08/29 04:01:42;;;;;;;3.70;2.57;;;13.70;99.90;;;;;;5095230;28;20403;-70
2022/08/29 04:05:05;;;;;;;4.83;2.67;;;13.60;99.90;;;;;;5095782;28;20245;-73
2022/08/29 04:06:53;;;;;;;4.77;2.97;;;13.60;99.90;;;;;;5095481;28;20182;-74
2022/08/29 04:09:19;;;;;;;4.03;3.03;;;13.60;99.90;;;;;;5095526;28;20508;-73
2022/08/29 04:11:45;;;;;;;5.23;2.60;;;13.60;99.90;;;;;;5095503;28;20581;-73
2022/08/29 04:14:12;;;;;;;4.37;3.00;;;13.60;99.90;;;;;;5095410;28;20162;-72
2022/08/29 04:16:38;;;;;;;2.33;2.23;;;13.70;99.90;;;;;;5095632;28;20612;-73
2022/08/29 04:19:03;;;;;;;8.20;2.70;;;13.60;99.90;;;;;;5095687;28;20183;-73
2022/08/29 04:21:29;;;;;;;5.50;3.10;;;13.50;99.90;;;;;;5095378;28;20175;-72
2022/08/29 04:23:56;;;;;;;4.97;2.63;;;13.30;99.90;;;;;;5095440;28;20224;-77
2022/08/29 04:26:22;;;;;;;6.97;3.03;;;13.30;99.90;;;;;;5095474;28;20249;-73
2022/08/29 04:28:48;;;;;;;5.83;3.17;;;13.20;99.90;;;;;;5095088;28;20285;-72
2022/08/29 04:31:20;;;;;;;6.83;3.83;;;12.90;99.90;;;;;;5095464;28;20591;-75
2022/08/29 04:33:48;;;;;;;4.80;3.23;;;13.00;99.90;;;;;;5095360;28;20250;-73
2022/08/29 04:36:15;;;;;;;4.60;3.20;;;12.70;99.90;;;;;;5094315;28;20170;-72
2022/08/29 04:38:41;;;;;;;6.27;3.20;;;12.20;99.90;;;;;;5095278;28;20178;-72
2022/08/29 04:41:13;;;;;;;7.00;3.37;;;10.00;99.90;;;;;;5095396;28;20170;-72
2022/08/29 04:43:40;;;;;;;3.90;3.50;;;10.60;99.90;;;;;;5094946;28;20179;-71
2022/08/29 04:46:06;;;;;;;7.17;2.93;;;11.20;99.90;;;;;;5095356;28;20174;-72
2022/08/29 04:48:32;;;;;;;4.93;2.67;;;10.10;99.90;;;;;;5095119;28;20590;-71
2022/08/29 04:51:00;;;;;;;8.10;3.17;;;11.30;99.90;;;;;;5098919;28;20167;-71
2022/08/29 04:53:26;;;;;;;18.80;5.83;;;11.30;99.90;;;;;;5098723;28;20182;-72
2022/08/29 04:55:56;;;;;;;9.13;5.27;;;9.10;99.90;;;;;;5098843;28;20167;-71
2022/08/29 04:58:23;;;;;;;9.80;3.77;;;9.90;99.90;;;;;;5098356;28;20186;-71
2022/08/29 05:00:49;;;;;;;9.77;4.50;;;10.60;99.90;;;;;;5098649;28;20187;-71
2022/08/29 05:03:15;;;;;;;10.07;4.17;;;10.80;99.90;;;;;;5098500;28;20673;-72
2022/08/29 05:05:40;;;;;;;10.20;4.30;;;10.80;99.90;;;;;;5098577;28;20175;-73
2022/08/29 05:08:06;;;;;;;6.90;3.73;;;9.70;99.90;;;;;;5098429;28;20177;-72
2022/08/29 05:10:32;;;;;;;7.40;3.60;;;9.30;99.90;;;;;;5097402;28;20174;-73
2022/08/29 05:12:58;;;;;;;7.50;5.83;;;11.00;99.90;;;;;;5096915;28;20302;-71
2022/08/29 05:15:23;;;;;;;7.73;4.83;;;10.80;99.90;;;;;;5098552;28;20163;-72
2022/08/29 05:17:49;;;;;;;6.87;4.63;;;8.80;99.90;;;;;;5098241;28;20170;-75
2022/08/29 05:20:15;;;;;;;6.47;3.63;;;11.00;99.90;;;;;;5098389;28;20249;-77
2022/08/29 05:22:41;;;;;;;7.97;4.50;;;10.30;99.90;;;;;;5098077;28;20170;-71
2022/08/29 05:25:08;;;;;;;9.63;4.00;;;8.90;99.90;;;;;;5098358;28;20175;-72
2022/08/29 05:27:34;;;;;;;6.07;3.83;;;9.40;99.90;;;;;;5096744;28;20540;-77
2022/08/29 05:30:00;;;;;;;5.63;4.03;;;9.70;99.90;;;;;;5097979;28;20202;-75
2022/08/29 05:32:26;;;;;;;9.20;3.60;;;9.80;99.90;;;;;;5097869;28;20170;-73
2022/08/29 05:34:52;;;;;;;9.07;3.77;;;9.60;99.90;;;;;;5097998;28;20171;-76
2022/08/29 05:37:19;;;;;;;4.57;4.07;;;9.70;99.90;;;;;;5098143;28;20318;-71
2022/08/29 05:39:46;;;;;;;7.40;4.20;;;8.90;99.90;;;;;;5097559;28;20171;-70
2022/08/29 05:42:12;;;;;;;9.00;3.97;;;8.70;99.90;;;;;;5096855;28;20171;-70
2022/08/29 05:44:39;;;;;;;6.37;3.40;;;10.30;99.90;;;;;;5097723;28;20506;-71
2022/08/29 05:47:07;;;;;;;5.97;3.33;;;10.60;99.90;;;;;;5096737;28;20193;-71
2022/08/29 05:49:37;;;;;;;11.17;3.50;;;10.20;99.90;;;;;;5097411;28;20291;-72
2022/08/29 05:52:04;;;;;;;7.80;4.27;;;10.50;99.90;;;;;;5097863;28;20181;-72
2022/08/29 05:54:32;;;;;;;6.83;3.30;;;10.90;99.90;;;;;;5097215;28;20249;-73
2022/08/29 05:56:58;;;;;;;10.33;4.00;;;10.60;99.90;;;;;;5097544;28;20155;-73
2022/08/29 05:59:24;;;;;;;7.53;3.53;;;11.70;99.90;;;;;;5097179;28;20192;-73
2022/08/29 06:01:50;;;;;;;7.37;3.40;;;12.40;99.90;;;;;;5096415;28;20257;-75
2022/08/29 06:04:15;;;;;;;5.67;4.03;;;12.50;99.90;;;;;;5097584;28;20493;-74
2022/08/29 06:06:41;;;;;;;13.43;3.73;;;12.40;99.90;;;;;;5097248;28;20227;-71
2022/08/29 06:09:08;;;;;;;4.13;2.70;;;12.60;99.90;;;;;;5097025;28;20186;-77
2022/08/29 06:11:34;;;;;;;7.07;3.60;;;12.40;99.90;;;;;;5097331;28;20163;-75
2022/08/29 06:14:00;;;;;;;8.90;3.67;;;12.30;99.90;;;;;;5097190;28;20163;-71
2022/08/29 06:16:28;;;;;;;5.60;3.60;;;12.40;99.90;;;;;;5097111;28;20173;-70
2022/08/29 06:18:55;;;;;;;5.90;3.60;;;12.40;99.90;;;;;;5097063;28;20172;-70
2022/08/29 06:21:21;;;;;;;5.33;3.23;;;12.40;99.90;;;;;;5097243;28;20220;-73
2022/08/29 06:23:48;;;;;;;6.27;3.20;;;12.30;99.90;;;;;;5096854;28;20478;-71
2022/08/29 06:26:14;;;;;;;11.07;4.83;;;12.30;99.90;;;;;;5097056;28;20176;-71
2022/08/29 06:28:44;;;;;;;5.57;2.93;;;12.40;99.90;;;;;;5096703;28;20202;-73
2022/08/29 06:31:23;;;;;;;6.07;3.80;;;12.40;99.90;;;;;;5095775;28;20207;-71
2022/08/29 06:33:54;;;;;;;6.07;3.77;;;12.60;99.90;;;;;;5096935;28;20462;-74
2022/08/29 06:36:20;;;;;;;7.40;3.50;;;12.70;99.90;;;;;;5096778;28;20242;-73
2022/08/29 06:38:47;;;;;;;4.83;3.33;;;12.60;99.90;;;;;;5096498;28;20171;-71
2022/08/29 06:41:14;;;;;;;8.43;2.93;;;12.40;99.90;;;;;;5096711;28;20171;-73
2022/08/29 06:43:41;;;;;;;6.20;3.50;;;12.40;99.90;;;;;;5096687;28;20174;-73
2022/08/29 06:46:17;;;;;;;15.87;3.87;;;12.50;99.90;;;;;;5096554;28;20250;-73
2022/08/29 06:48:43;;;;;;;9.13;3.73;;;12.00;99.90;;;;;;5096435;28;20269;-73
2022/08/29 06:51:08;;;;;;;3.83;2.90;;;11.80;99.90;;;;;;5096487;28;20250;-70
2022/08/29 06:53:34;;;;;;;5.20;3.30;;;10.40;99.90;;;;;;5096214;28;20220;-73
2022/08/29 06:56:05;;;;;;;4.83;2.60;;;10.80;99.90;;;;;;5096501;28;20177;-71
2022/08/29 06:58:31;;;;;;;6.50;3.70;;;10.70;99.90;;;;;;5096294;28;20640;-71
2022/08/29 07:00:57;;;;;;;6.37;2.37;;;10.20;99.90;;;;;;5096271;28;20170;-73
2022/08/29 07:03:23;;;;;;;5.53;3.10;;;10.10;99.90;;;;;;5097073;28;20597;-70
2022/08/29 07:05:52;;;;;;;11.80;3.77;;;9.40;99.90;;;;;;5096224;28;20508;-72
2022/08/29 07:08:18;;;;;;;2.87;2.40;;;8.50;99.90;;;;;;5096543;28;20502;-72
2022/08/29 07:10:44;;;;;;;4.87;2.80;;;8.10;99.90;;;;;;5095237;28;20178;-72
2022/08/29 07:13:10;;;;;;;10.53;3.70;;;10.10;99.90;;;;;;5096077;28;20177;-72
2022/08/29 07:15:36;;;;;;;6.83;3.27;;;9.50;99.90;;;;;;5096017;28;20470;-71
2022/08/29 07:18:02;;;;;;;3.20;2.40;;;8.20;99.90;;;;;;5096284;28;20182;-71
2022/08/29 07:20:28;;;;;;;7.23;3.10;;;9.30;99.90;;;;;;5096076;28;20298;-71
2022/08/29 07:22:54;;;;;;;9.47;3.00;;;10.50;99.90;;;;;;5095803;28;20530;-72
2022/08/29 07:25:20;;;;;;;6.03;2.43;;;11.60;99.90;;;;;;5095185;28;20171;-72
2022/08/29 07:27:48;;;;;;;4.73;2.30;;;10.90;99.90;;;;;;5095996;28;20171;-73
2022/08/29 07:30:15;;;;;;;2.53;2.13;;;10.50;99.90;;;;;;5096038;28;20206;-72
2022/08/29 07:32:44;;;;;;;3.63;2.50;;;11.90;99.90;;;;;;5095904;28;20163;-70
2022/08/29 07:35:14;;;;;;;4.03;2.47;;;16.40;99.90;;;;;;5095959;28;20224;-72
2022/08/29 07:37:40;;;;;;;5.30;2.40;;;17.20;99.90;;;;;;5095410;28;20167;-73
2022/08/29 07:40:09;;;;;;;8.97;3.07;;;17.40;99.90;;;;;;5095958;28;20228;-73
2022/08/29 07:42:36;;;;;;;6.60;2.63;;;17.60;99.90;;;;;;5094599;28;20205;-71
2022/08/29 07:45:07;;;;;;;2.27;2.03;;;17.60;99.90;;;;;;5095950;28;20636;-73
2022/08/29 07:47:33;;;;;;;2.47;2.27;;;17.70;99.90;;;;;;5095736;28;20171;-73
2022/08/29 07:50:00;;;;;;;4.70;3.03;;;17.80;99.90;;;;;;5094675;28;20206;-73
2022/08/29 07:52:28;;;;;;;2.47;1.87;;;17.90;99.90;;;;;;5095287;28;20614;-71
2022/08/29 07:54:54;;;;;;;3.90;2.13;;;17.80;99.90;;;;;;5095058;28;20493;-71
2022/08/29 07:57:21;;;;;;;1.63;1.33;;;17.90;99.90;;;;;;5094557;28;20190;-72
2022/08/29 07:59:47;;;;;;;3.93;1.90;;;17.90;99.90;;;;;;5095462;28;20232;-74
2022/08/29 08:02:13;;;;;;;3.20;1.73;;;17.90;99.90;;;;;;5095659;28;20214;-71
2022/08/29 08:04:39;;;;;;;2.93;1.90;;;18.10;99.90;;;;;;5095532;28;20171;-74
2022/08/29 08:07:05;;;;;;;5.63;2.70;;;18.10;99.90;;;;;;5095256;28;20182;-77
2022/08/29 08:09:32;;;;;;;4.10;1.90;;;18.20;99.90;;;;;;5095593;28;20206;-70
2022/08/29 08:11:58;;;;;;;7.57;2.37;;;18.20;99.90;;;;;;5095398;28;20249;-71
2022/08/29 08:14:24;;;;;;;7.23;2.50;;;18.20;99.90;;;;;;5095618;28;20254;-71
2022/08/29 08:16:49;;;;;;;3.40;1.73;;;18.30;99.90;;;;;;5095486;28;20250;-73
2022/08/29 08:19:17;;;;;;;5.53;2.20;;;18.40;99.90;;;;;;5095253;28;20547;-72
2022/08/29 08:21:42;;;;;;;5.40;1.90;;;18.40;99.90;;;;;;5095418;28;20186;-73
2022/08/29 08:24:08;;;;;;;3.87;1.53;;;18.20;99.90;;;;;;5096665;28;20175;-73
2022/08/29 08:26:35;;;;;;;5.67;1.80;;;17.40;99.90;;;;;;5099320;28;20181;-73
2022/08/29 08:29:01;;;;;;;6.50;2.20;;;17.30;99.90;;;;;;5098224;28;20305;-72
2022/08/29 08:31:27;;;;;;;8.40;2.77;;;17.10;99.90;;;;;;5098331;28;20262;-73
2022/08/29 08:33:53;;;;;;;5.03;2.00;;;17.10;99.90;;;;;;5098810;28;20216;-72
2022/08/29 08:36:28;;;;;;;11.57;2.63;;;17.10;99.90;;;;;;5099176;28;20175;-73
2022/08/29 08:38:55;;;;;;;3.77;1.57;;;17.10;99.90;;;;;;5099034;28;20178;-73
2022/08/29 08:41:39;;;;;;;5.03;2.27;;;17.00;99.90;;;;;;5099113;28;20178;-72
2022/08/29 08:44:27;;;;;;;3.47;1.70;;;16.40;99.90;;;;;;5098814;28;20190;-73
2022/08/29 08:46:59;;;;;;;3.63;1.87;;;14.10;99.90;;;;;;5097928;28;20630;-72
2022/08/29 08:49:51;;;;;;;5.93;2.50;;;18.80;99.90;;;;;;5098510;28;20202;-71
2022/08/29 08:52:30;;;;;;;7.40;2.73;;;18.80;99.90;;;;;;5098756;28;20194;-72
2022/08/29 08:55:03;;;;;;;3.33;2.07;;;18.80;99.90;;;;;;5098881;28;20163;-70
2022/08/29 08:57:38;;;;;;;6.60;2.77;;;18.80;99.90;;;;;;5097519;28;20175;-73
2022/08/29 09:00:05;;;;;;;7.43;3.20;;;18.80;99.90;;;;;;5098626;28;20283;-71
2022/08/29 09:02:37;;;;;;;10.90;3.20;;;18.70;99.90;;;;;;5097480;28;20619;-73
2022/08/29 09:05:21;;;;;;;4.40;2.67;;;18.70;99.90;;;;;;5098345;28;20249;-71
2022/08/29 09:08:23;;;;;;;4.27;2.10;;;18.80;99.90;;;;;;5098594;28;20167;-72
2022/08/29 09:11:22;;;;;;;2.77;2.30;;;18.80;99.90;;;;;;5098589;28;20182;-71
2022/08/29 09:14:16;;;;;;;2.93;2.40;;;18.90;99.90;;;;;;5098398;28;20178;-73
2022/08/29 09:16:46;;;;;;;4.93;2.30;;;18.90;99.90;;;;;;5098579;28;20159;-72
2022/08/29 09:19:13;;;;;;;5.87;1.97;;;18.90;99.90;;;;;;5098194;28;20169;-72
2022/08/29 09:21:54;;;;;;;4.73;2.43;;;19.00;99.90;;;;;;5098270;28;20171;-71
2022/08/29 09:24:41;;;;;;;8.67;3.77;;;19.20;99.90;;;;;;5098332;28;20163;-72
2022/08/29 09:27:20;;;;;;;3.97;2.30;;;19.40;99.90;;;;;;5098254;28;20167;-72
2022/08/29 09:29:54;;;;;;;4.93;3.63;;;19.30;99.90;;;;;;5097982;28;20228;-72
2022/08/29 09:32:19;;;;;;;3.80;2.03;;;19.40;99.90;;;;;;5097768;28;20166;-71
2022/08/29 09:34:47;;;;;;;2.73;1.70;;;19.70;99.90;;;;;;5097885;28;20163;-71
2022/08/29 09:37:26;;;;;;;3.90;2.70;;;19.80;99.90;;;;;;5098044;28;20162;-70
2022/08/29 09:40:10;;;;;;;3.00;2.47;;;19.80;99.90;;;;;;5097872;28;20170;-72
2022/08/29 09:42:39;;;;;;;2.07;1.97;;;19.90;99.90;;;;;;5096833;28;20586;-73
2022/08/29 09:45:18;;;;;;;6.40;2.77;;;20.00;99.90;;;;;;5097821;28;20177;-70
2022/08/29 09:47:44;;;;;;;7.57;2.80;;;20.30;99.90;;;;;;5097658;28;20170;-71
2022/08/29 09:50:16;;;;;;;3.70;2.77;;;20.40;99.90;;;;;;5097547;28;20202;-69
2022/08/29 09:53:02;;;;;;;3.93;2.43;;;20.40;99.90;;;;;;5096685;28;20174;-71
2022/08/29 09:55:41;;;;;;;4.87;3.10;;;20.40;99.90;;;;;;5097622;28;20558;-72
2022/08/29 09:58:18;;;;;;;3.27;2.73;;;20.50;99.90;;;;;;5097543;28;20181;-70
2022/08/29 10:01:06;;;;;;;5.97;3.00;;;20.40;99.90;;;;;;5097295;28;20199;-72
2022/08/29 10:03:35;;;;;;;3.73;2.87;;;19.90;99.90;;;;;;5097405;28;20168;-70
2022/08/29 10:06:15;;;;;;;3.93;2.10;;;20.80;99.90;;;;;;5097483;28;20163;-72
2022/08/29 10:08:53;;;;;;;8.97;3.80;;;20.90;99.90;;;;;;5096367;28;20252;-71
2022/08/29 10:11:42;;;;;;;4.40;2.60;;;20.90;99.90;;;;;;5097421;28;20194;-73
2022/08/29 10:14:41;;;;;;;3.60;1.83;;;20.90;99.90;;;;;;5097249;28;20158;-71
2022/08/29 10:19:59;;;;;;;2.50;2.30;;;19.50;98.60;;;;;;5097105;28;20169;-71
2022/08/29 10:22:43;;;;;;;3.67;2.23;;;18.30;98.60;;;;;;5097161;28;20163;-76
2022/08/29 10:25:45;;;;;;;9.00;3.07;;;21.70;99.50;;;;;;5096947;28;20632;-74
2022/08/29 10:28:15;;;;;;;4.13;2.20;;;21.70;99.90;;;;;;5074461;28;20515;-72
2022/08/29 10:31:07;;;;;;;5.90;2.60;;;21.80;99.10;;;;;;5092900;28;20183;-74
2022/08/29 10:33:46;;;;;;;5.43;2.50;;;21.50;98.30;;;;;;5096984;28;20355;-74
2022/08/29 10:36:34;;;;;;;6.43;3.17;;;21.00;97.70;;;;;;5096617;28;20167;-71
2022/08/29 10:39:11;;;;;;;6.37;3.27;;;21.00;98.20;;;;;;5096776;28;20206;-71
2022/08/29 10:41:43;;;;;;;6.13;2.87;;;20.80;97.90;;;;;;5096736;28;20190;-71
2022/08/29 10:44:28;;;;;;;4.77;2.90;;;19.90;98.20;;;;;;5096795;28;20178;-73
2022/08/29 10:47:03;;;;;;;3.43;2.13;;;20.50;98.20;;;;;;5096146;28;20163;-71
2022/08/29 10:49:43;;;;;;;8.80;2.23;;;20.80;98.30;;;;;;5096498;28;20264;-72
2022/08/29 10:52:33;;;;;;;5.20;2.67;;;19.50;97.90;;;;;;5096481;28;20472;-71
2022/08/29 10:54:58;;;;;;;13.47;2.63;;;-12.60;87.30;;;;;;5096386;28;20525;-70
2022/08/29 10:58:10;;;;;;;2.97;2.33;;;-13.20;85.90;;;;;;5096540;28;20246;-72
2022/08/29 11:00:39;;;;;;;8.43;4.00;;;22.80;98.00;;;;;;5093842;28;20256;-73
2022/08/29 11:03:38;;;;;;;2.63;2.43;;;22.70;97.30;;;;;;5096397;28;20249;-74
2022/08/29 11:06:16;;;;;;;3.00;2.20;;;22.70;97.30;;;;;;5095032;28;20582;-71
2022/08/29 11:08:52;;;;;;;4.70;3.27;;;22.90;97.40;;;;;;5096282;28;20527;-72
2022/08/29 11:11:22;;;;;;;1.93;1.80;;;21.90;96.70;;;;;;5096236;28;20166;-72
2022/08/29 11:13:59;;;;;;;3.90;2.67;;;22.50;97.60;;;;;;5096142;28;20232;-75
2022/08/29 11:16:31;;;;;;;3.03;2.40;;;22.70;97.50;;;;;;5096165;28;20170;-73
2022/08/29 11:19:22;;;;;;;4.80;2.60;;;22.70;97.30;;;;;;5096045;28;20207;-73
2022/08/29 11:22:01;;;;;;;3.27;2.20;;;21.80;96.70;;;;;;5096021;28;20467;-71
2022/08/29 11:24:30;;;;;;;4.63;2.47;;;23.80;95.50;;;;;;5096123;28;20523;-78
2022/08/29 11:27:41;;;;;;;5.33;3.33;;;23.80;94.80;;;;;;5095954;28;20582;-76
2022/08/29 11:30:26;;;;;;;7.10;2.73;;;23.70;94.60;;;;;;5096159;28;20214;-76
2022/08/29 11:33:04;;;;;;;4.63;3.00;;;23.70;94.80;;;;;;5096761;28;20578;-78
2022/08/29 11:35:45;;;;;;;4.20;3.07;;;23.60;95.10;;;;;;5096258;28;20220;-76
2022/08/29 11:38:37;;;;;;;6.20;2.43;;;23.70;94.60;;;;;;5095928;28;20166;-72
2022/08/29 11:41:19;;;;;;;5.03;3.10;;;23.60;95.00;;;;;;5095539;28;20200;-74
2022/08/29 11:43:49;;;;;;;2.00;1.80;;;23.70;94.30;;;;;;5095980;28;20198;-72
2022/08/29 11:46:27;;;;;;;4.10;2.37;;;23.40;94.30;;;;;;5095737;28;20171;-70
2022/08/29 11:49:32;;;;;;;6.47;2.10;;;23.80;93.40;;;;;;5095744;28;20209;-71
2022/08/29 11:52:07;;;;;;;5.97;2.87;;;-29.10;61.70;;;;;;5095568;28;20162;-70
2022/08/29 11:54:36;;;;;;;6.50;3.30;;;-34.60;57.50;;;;;;5095750;28;20159;-70
2022/08/29 11:57:04;;;;;;;5.80;3.10;;;25.30;91.70;;;;;;5095359;28;20283;-72
2022/08/29 12:00:00;;;;;;;19.17;3.83;;;25.20;91.20;;;;;;5097528;28;20277;-72
2022/08/29 12:02:31;;;;;;;4.30;2.03;;;25.40;91.10;;;;;;5097085;28;20589;-71
2022/08/29 12:05:45;;;;;;;9.30;2.97;;;25.50;91.20;;;;;;5099736;28;20474;-71
2022/08/29 12:08:16;;;;;;;22.03;4.63;;;25.60;90.80;;;;;;5067603;28;20531;-73
2022/08/29 12:10:55;;;;;;;12.37;4.37;;;25.10;90.50;;;;;;5099737;28;20262;-74
2022/08/29 12:13:57;;;;;;;3.17;2.43;;;26.80;89.80;;;;;;5099375;28;20163;-75
2022/08/29 12:16:45;;;;;;;5.03;2.53;;;-40.00;48.70;;;;;;5087925;28;20191;-71
2022/08/29 12:19:11;;;;;;;3.03;2.10;;;-40.00;45.70;;;;;;5098529;28;20171;-74
2022/08/29 12:21:43;;;;;;;14.70;2.77;;;-40.00;45.80;;;;;;5099444;28;20258;-73
2022/08/29 12:24:28;;;;;;;11.50;2.77;;;-40.00;46.00;;;;;;5099397;28;20253;-73
2022/08/29 12:26:54;;;;;;;3.87;2.37;;;-40.00;42.90;;;;;;5099069;28;20170;-71
2022/08/29 12:29:24;;;;;;;2.27;2.03;;;-40.00;44.10;;;;;;5099178;28;20202;-72
2022/08/29 12:32:05;;;;;;;3.07;2.77;;;-40.00;43.40;;;;;;5099413;28;20179;-71
2022/08/29 12:35:05;;;;;;;5.23;2.50;;;-40.00;45.30;;;;;;5099280;28;20173;-71
2022/08/29 12:38:01;;;;;;;2.00;1.87;;;-40.00;40.80;;;;;;5099130;28;20262;-73
2022/08/29 12:40:57;;;;;;;3.67;2.17;;;-40.00;42.60;;;;;;5098745;28;20221;-71
2022/08/29 12:43:41;;;;;;;3.73;2.27;;;-40.00;43.10;;;;;;5099042;28;20178;-71
2022/08/29 12:46:31;;;;;;;3.60;2.27;;;-40.00;42.90;;;;;;5099049;28;20537;-70
2022/08/29 12:49:24;;;;;;;2.57;2.37;;;-40.00;42.70;;;;;;5098797;28;20217;-69
2022/08/29 12:52:04;;;;;;;2.80;2.50;;;-40.00;42.40;;;;;;5098911;28;20673;-74
2022/08/29 12:54:40;;;;;;;2.50;2.03;;;-40.00;41.40;;;;;;5098741;28;20170;-72
2022/08/29 12:57:18;;;;;;;2.30;1.90;;;-40.00;40.70;;;;;;5098751;28;20170;-71
2022/08/29 12:59:46;;;;;;;1.95;1.85;;;-40.00;38.70;;;;;;5098618;28;20190;-71
2022/08/29 13:02:34;;;;;;;3.78;2.40;;;-40.00;38.80;;;;;;5098736;28;20167;-70
2022/08/29 13:05:00;;;;;;;4.38;2.95;;;-40.00;37.00;;;;;;5098673;28;20515;-72
2022/08/29 13:07:27;;;;;;;2.38;2.17;;;-40.00;35.50;;;;;;5098687;28;20231;-73
2022/08/29 13:09:58;;;;;;;2.65;2.50;;;-40.00;35.60;;;;;;5097788;28;20195;-70
2022/08/29 13:12:28;;;;;;;4.63;2.25;;;-40.00;34.60;;;;;;5098439;28;20571;-71
2022/08/29 13:14:59;;;;;;;5.43;2.67;;;-40.00;33.00;;;;;;5098429;28;20474;-71